Anza, California
Current Conditions -  °F | °C
As of 11:53 AM on Sunday 25 Jan 2015 (Local Time) from KPSP Reporting Station
Scattered Clouds Scattered Clouds  
Wind Chill: 27°   Ceiling: Unl
Heat Index: 27°   Visibility: 10mi
Dew Point: -4°   Wind: 5mph
Humidity: 13%   Direction: NA
Pressure: 30.09"   Gusts: NA
Location:  33.55°N, 116.67°W
Report Text: KPSP 251953Z VRB04KT 10SM SCT200 27/M04 A3009 RMK AO2 SLP189 T02671044
Loading
Personal Weather Stations






























Interactive Weather Map New forecast layout! Learn more

10-Day Weather Forecast

Advertisements
Track Severe Weather on mobile